createdAt,value
2022-07-29T00:02:21.473Z,1.60
2022-07-29T00:05:00.039Z,0.90
2022-07-29T00:07:38.277Z,0.95
2022-07-29T00:10:16.498Z,1.17
2022-07-29T00:12:54.658Z,0.82
2022-07-29T00:15:33.760Z,0.93
2022-07-29T00:18:11.862Z,0.80
2022-07-29T00:20:50.052Z,0.80
2022-07-29T00:23:29.876Z,1.20
2022-07-29T00:26:09.084Z,0.90
2022-07-29T00:28:47.209Z,0.93
2022-07-29T00:31:25.393Z,1.02
2022-07-29T00:34:03.727Z,0.90
2022-07-29T00:36:41.803Z,0.82
2022-07-29T00:39:19.887Z,1.00
2022-07-29T00:41:58.089Z,0.82
2022-07-29T00:44:41.585Z,0.85
2022-07-29T00:47:19.754Z,1.15
2022-07-29T00:49:58.534Z,1.15
2022-07-29T00:52:39.703Z,1.00
2022-07-29T00:55:18.713Z,1.00
2022-07-29T00:57:59.386Z,1.05
2022-07-29T01:00:38.057Z,1.00
2022-07-29T01:03:16.345Z,1.10
2022-07-29T01:05:56.052Z,0.75
2022-07-29T01:08:34.672Z,0.95
2022-07-29T01:11:14.152Z,0.88
2022-07-29T01:13:53.768Z,0.88
2022-07-29T01:16:47.360Z,0.80
2022-07-29T01:19:53.523Z,1.00
2022-07-29T01:23:09.025Z,1.30
2022-07-29T01:26:23.402Z,0.93
2022-07-29T01:29:15.125Z,0.68
2022-07-29T01:32:20.286Z,0.73
2022-07-29T01:35:11.562Z,1.20
2022-07-29T01:38:06.440Z,1.10
2022-07-29T01:41:13.440Z,0.90
2022-07-29T01:44:00.393Z,1.05
2022-07-29T01:46:45.392Z,1.30
2022-07-29T01:49:29.818Z,0.88
2022-07-29T01:52:21.869Z,0.98
2022-07-29T01:55:07.565Z,0.82
2022-07-29T01:57:49.800Z,0.95
2022-07-29T02:00:30.912Z,0.82
2022-07-29T02:03:12.657Z,1.10
2022-07-29T02:05:54.086Z,1.23
2022-07-29T02:08:35.346Z,0.88
2022-07-29T02:11:13.733Z,0.90
2022-07-29T02:13:56.062Z,0.73
2022-07-29T02:16:37.218Z,0.75
2022-07-29T02:19:18.469Z,1.15
2022-07-29T02:21:59.953Z,1.17
2022-07-29T02:24:41.433Z,0.98
2022-07-29T02:27:21.721Z,1.00
2022-07-29T02:32:44.024Z,1.05
2022-07-29T02:35:26.118Z,1.08
2022-07-29T02:38:24.340Z,0.95
2022-07-29T02:41:12.586Z,1.13
2022-07-29T02:44:02.920Z,0.93
2022-07-29T02:46:47.286Z,1.20
2022-07-29T02:49:53.612Z,0.98
2022-07-29T02:52:54.703Z,0.90
2022-07-29T02:56:00.078Z,0.80
2022-07-29T02:58:54.394Z,1.00
2022-07-29T03:01:36.211Z,0.93
2022-07-29T03:04:17.165Z,0.90
2022-07-29T03:07:01.605Z,0.75
2022-07-29T03:09:41.588Z,0.93
2022-07-29T03:12:20.468Z,1.05
2022-07-29T03:15:00.079Z,1.10
2022-07-29T03:17:40.145Z,0.90
2022-07-29T03:20:19.103Z,1.17
2022-07-29T03:22:57.271Z,0.95
2022-07-29T03:25:36.004Z,1.30
2022-07-29T03:28:15.037Z,1.15
2022-07-29T03:30:55.088Z,1.02
2022-07-29T03:33:33.313Z,0.70
2022-07-29T03:36:11.609Z,1.02
2022-07-29T03:38:51.207Z,1.10
2022-07-29T03:41:31.501Z,1.20
2022-07-29T03:44:11.168Z,1.08
2022-07-29T03:46:52.494Z,1.53
2022-07-29T03:49:32.166Z,0.93
2022-07-29T03:52:11.027Z,1.00
2022-07-29T03:54:50.112Z,1.30
2022-07-29T03:57:31.961Z,0.80
2022-07-29T04:00:11.625Z,0.77
2022-07-29T04:02:50.200Z,1.17
2022-07-29T04:05:28.512Z,1.02
2022-07-29T04:08:07.161Z,0.80
2022-07-29T04:10:45.231Z,1.00
2022-07-29T04:13:23.397Z,1.15
2022-07-29T04:16:01.998Z,0.90
2022-07-29T04:18:40.256Z,0.60
2022-07-29T04:21:18.414Z,0.80
2022-07-29T04:23:56.847Z,1.08
2022-07-29T04:26:36.155Z,0.75
2022-07-29T04:29:15.457Z,0.88
2022-07-29T04:31:53.745Z,0.70
2022-07-29T04:34:31.913Z,1.05
2022-07-29T04:37:10.010Z,1.08
2022-07-29T04:39:48.198Z,0.80
2022-07-29T04:42:27.625Z,0.82
2022-07-29T04:45:07.092Z,0.90
2022-07-29T04:47:45.771Z,0.85
2022-07-29T04:50:23.890Z,1.10
2022-07-29T04:53:02.011Z,0.90
2022-07-29T04:55:40.162Z,1.20
2022-07-29T04:58:18.529Z,1.17
2022-07-29T05:00:56.779Z,1.38
2022-07-29T05:03:34.860Z,0.90
2022-07-29T05:06:13.533Z,0.80
2022-07-29T05:08:51.632Z,1.10
2022-07-29T05:11:30.480Z,1.17
2022-07-29T05:14:08.906Z,0.90
2022-07-29T05:16:47.646Z,1.08
2022-07-29T05:19:25.833Z,1.30
2022-07-29T05:22:04.052Z,1.38
2022-07-29T05:24:42.486Z,1.20
2022-07-29T05:27:20.696Z,1.20
2022-07-29T05:29:58.819Z,1.10
2022-07-29T05:32:37.170Z,1.20
2022-07-29T05:35:16.202Z,1.25
2022-07-29T05:37:54.346Z,1.75
2022-07-29T05:40:33.476Z,1.00
2022-07-29T05:43:11.605Z,1.23
2022-07-29T05:45:50.401Z,1.10
2022-07-29T05:48:29.076Z,1.02
2022-07-29T05:51:07.417Z,1.02
2022-07-29T05:53:46.076Z,1.17
2022-07-29T05:56:24.582Z,0.95
2022-07-29T05:59:02.703Z,1.13
2022-07-29T06:01:40.983Z,1.20
2022-07-29T06:04:20.112Z,1.30
2022-07-29T06:06:58.590Z,1.15
2022-07-29T06:09:36.494Z,1.27
2022-07-29T06:12:15.557Z,0.90
2022-07-29T06:14:54.290Z,1.05
2022-07-29T06:17:32.982Z,1.40
2022-07-29T06:20:12.410Z,1.45
2022-07-29T06:22:50.598Z,1.13
2022-07-29T06:25:30.527Z,1.10
2022-07-29T06:28:08.775Z,1.00
2022-07-29T06:30:47.090Z,1.20
2022-07-29T06:33:25.255Z,1.27
2022-07-29T06:36:06.849Z,0.93
2022-07-29T06:38:50.434Z,1.20
2022-07-29T06:41:30.735Z,1.08
2022-07-29T06:44:08.938Z,1.67
2022-07-29T06:46:50.261Z,1.17
2022-07-29T06:49:28.872Z,0.70
2022-07-29T06:52:06.993Z,0.93
2022-07-29T06:54:49.141Z,1.27
2022-07-29T06:57:27.496Z,1.38
2022-07-29T07:00:07.090Z,1.00
2022-07-29T07:02:45.426Z,1.43
2022-07-29T07:05:25.648Z,1.17
2022-07-29T07:08:04.336Z,1.13
2022-07-29T07:10:43.016Z,1.27
2022-07-29T07:13:21.434Z,1.13
2022-07-29T07:15:59.492Z,1.38
2022-07-29T07:18:37.649Z,1.27
2022-07-29T07:21:19.064Z,1.17
2022-07-29T07:23:57.820Z,1.13
2022-07-29T07:26:36.040Z,1.20
2022-07-29T07:29:14.182Z,1.13
2022-07-29T07:31:55.212Z,1.17
2022-07-29T07:34:39.034Z,1.25
2022-07-29T07:37:17.316Z,1.20
2022-07-29T07:39:55.721Z,1.05
2022-07-29T07:42:34.284Z,1.10
2022-07-29T07:45:16.436Z,1.00
2022-07-29T07:47:54.932Z,1.10
2022-07-29T07:50:33.164Z,1.45
2022-07-29T07:53:11.850Z,1.90
2022-07-29T07:58:46.995Z,1.10
2022-07-29T08:01:25.167Z,1.48
2022-07-29T08:04:03.337Z,1.45
2022-07-29T08:06:41.465Z,1.02
2022-07-29T08:09:28.605Z,1.23
2022-07-29T08:12:08.235Z,1.25
2022-07-29T08:14:46.339Z,1.25
2022-07-29T08:17:24.500Z,1.50
2022-07-29T08:20:03.227Z,1.33
2022-07-29T08:22:41.353Z,1.48
2022-07-29T08:25:21.465Z,1.50
2022-07-29T08:28:00.629Z,1.10
2022-07-29T08:30:38.931Z,1.35
2022-07-29T08:33:17.145Z,1.50
2022-07-29T08:35:55.268Z,1.50
2022-07-29T08:38:34.216Z,1.20
2022-07-29T08:41:12.479Z,1.30
2022-07-29T08:43:52.252Z,1.38
2022-07-29T08:46:30.411Z,1.30
2022-07-29T08:49:08.944Z,1.30
2022-07-29T08:51:49.378Z,1.60
2022-07-29T08:54:29.363Z,1.27
2022-07-29T08:57:08.117Z,1.30
2022-07-29T08:59:51.340Z,1.15
2022-07-29T09:02:37.953Z,1.40
2022-07-29T09:05:16.724Z,1.42
2022-07-29T09:07:56.035Z,1.33
2022-07-29T09:10:36.238Z,1.73
2022-07-29T09:13:14.414Z,1.00
2022-07-29T09:15:53.011Z,1.45
2022-07-29T09:18:57.301Z,1.60
2022-07-29T09:22:02.972Z,1.90
2022-07-29T09:24:46.308Z,1.13
2022-07-29T09:27:30.184Z,1.60
2022-07-29T09:30:15.839Z,1.27
2022-07-29T09:33:06.189Z,1.20
2022-07-29T09:35:44.456Z,1.38
2022-07-29T09:38:38.116Z,1.33
2022-07-29T09:41:16.308Z,1.35
2022-07-29T09:44:00.084Z,1.13
2022-07-29T09:46:38.270Z,1.67
2022-07-29T09:49:16.552Z,1.60
2022-07-29T09:52:07.177Z,1.25
2022-07-29T09:54:47.046Z,1.30
2022-07-29T09:57:31.084Z,1.58
2022-07-29T10:00:12.709Z,1.23
2022-07-29T10:02:51.658Z,1.25
2022-07-29T10:05:36.061Z,1.90
2022-07-29T10:08:25.648Z,1.48
2022-07-29T10:11:18.684Z,1.48
2022-07-29T10:13:56.999Z,1.50
2022-07-29T10:16:35.470Z,1.25
2022-07-29T10:19:15.216Z,1.20
2022-07-29T10:21:58.030Z,1.63
2022-07-29T10:24:38.641Z,1.88
2022-07-29T10:29:55.858Z,1.60
2022-07-29T10:33:00.929Z,1.65
2022-07-29T10:36:25.511Z,1.58
2022-07-29T10:39:54.367Z,2.40
2022-07-29T10:42:34.380Z,1.63
2022-07-29T10:48:07.925Z,2.22
2022-07-29T10:50:57.928Z,1.98
2022-07-29T10:53:53.722Z,1.90
2022-07-29T10:56:37.320Z,1.25
2022-07-29T10:59:22.948Z,1.25
2022-07-29T11:02:35.386Z,1.48
2022-07-29T11:04:59.927Z,2.05
2022-07-29T11:07:45.701Z,1.58
2022-07-29T11:10:26.971Z,1.33
2022-07-29T11:13:09.939Z,1.38
2022-07-29T11:15:56.256Z,1.40
2022-07-29T11:18:34.728Z,2.05
2022-07-29T11:21:53.978Z,1.45
2022-07-29T11:24:37.039Z,1.70
2022-07-29T11:27:20.750Z,1.67
2022-07-29T11:30:03.194Z,1.67
2022-07-29T11:32:48.535Z,1.60
2022-07-29T11:35:37.164Z,1.67
2022-07-29T11:38:31.833Z,1.30
2022-07-29T11:41:26.006Z,1.85
2022-07-29T11:44:06.123Z,1.30
2022-07-29T11:46:54.117Z,1.50
2022-07-29T11:49:33.302Z,1.67
2022-07-29T11:52:12.608Z,2.97
2022-07-29T11:58:09.376Z,1.80
2022-07-29T12:00:49.613Z,1.75
2022-07-29T12:03:35.285Z,2.25
2022-07-29T12:06:18.216Z,2.05
2022-07-29T12:08:57.775Z,1.63
2022-07-29T12:11:36.571Z,1.40
2022-07-29T12:14:31.999Z,1.40
2022-07-29T12:17:36.375Z,2.05
2022-07-29T12:20:22.639Z,1.63
2022-07-29T12:23:09.183Z,1.45
2022-07-29T12:25:49.963Z,1.95
2022-07-29T12:28:28.592Z,1.60
2022-07-29T12:31:08.232Z,1.70
2022-07-29T12:33:54.748Z,1.70
2022-07-29T12:36:34.123Z,1.90
2022-07-29T12:39:13.522Z,1.80
2022-07-29T12:41:51.681Z,1.45
2022-07-29T12:44:50.152Z,1.77
2022-07-29T12:47:29.331Z,2.15
2022-07-29T12:50:22.123Z,1.80
2022-07-29T12:53:14.860Z,1.80
2022-07-29T12:55:58.326Z,1.75
2022-07-29T12:58:42.544Z,1.58
2022-07-29T13:01:22.076Z,1.50
2022-07-29T13:04:03.039Z,2.05
2022-07-29T13:06:45.994Z,1.50
2022-07-29T13:09:43.063Z,1.30
2022-07-29T13:12:22.056Z,1.80
2022-07-29T13:14:57.663Z,1.48
2022-07-29T13:17:43.669Z,1.88
2022-07-29T13:20:30.803Z,1.92
2022-07-29T13:23:08.907Z,1.98
2022-07-29T13:25:47.057Z,1.70
2022-07-29T13:28:25.292Z,1.58
2022-07-29T13:31:03.745Z,1.67
2022-07-29T13:33:41.857Z,2.13
2022-07-29T13:36:19.945Z,1.80
2022-07-29T13:38:58.071Z,1.52
2022-07-29T13:41:36.169Z,1.88
2022-07-29T13:44:15.070Z,1.63
2022-07-29T13:46:53.287Z,1.80
2022-07-29T13:49:31.430Z,1.65
2022-07-29T13:52:09.659Z,1.83
2022-07-29T13:54:48.355Z,1.40
2022-07-29T13:57:26.499Z,1.75
2022-07-29T14:00:05.673Z,1.55
2022-07-29T14:02:44.151Z,1.77
2022-07-29T14:05:22.300Z,1.98
2022-07-29T14:08:00.402Z,1.83
2022-07-29T14:10:38.534Z,1.50
2022-07-29T14:13:25.235Z,1.80
2022-07-29T14:16:03.819Z,2.30
2022-07-29T14:18:42.066Z,1.95
2022-07-29T14:21:20.264Z,1.77
2022-07-29T14:24:01.476Z,1.50
2022-07-29T14:26:39.645Z,1.70
2022-07-29T14:29:17.768Z,1.70
2022-07-29T14:31:56.300Z,1.58
2022-07-29T14:34:35.983Z,1.48
2022-07-29T14:37:15.971Z,1.70
2022-07-29T14:39:55.558Z,1.65
2022-07-29T14:42:33.641Z,1.70
2022-07-29T14:45:11.883Z,2.20
2022-07-29T14:47:51.798Z,1.65
2022-07-29T14:50:35.489Z,1.52
2022-07-29T14:53:14.268Z,1.95
2022-07-29T14:55:52.441Z,2.10
2022-07-29T14:58:30.546Z,2.65
2022-07-29T15:01:08.719Z,1.90
2022-07-29T15:03:46.932Z,1.50
2022-07-29T15:06:25.073Z,2.25
2022-07-29T15:09:03.211Z,5.15
2022-07-29T15:11:41.316Z,2.22
2022-07-29T15:14:19.489Z,2.40
2022-07-29T15:16:57.654Z,1.63
2022-07-29T15:19:36.066Z,1.92
2022-07-29T15:22:14.264Z,1.42
2022-07-29T15:24:52.405Z,2.20
2022-07-29T15:27:30.465Z,2.15
2022-07-29T15:30:09.575Z,1.90
2022-07-29T15:32:47.721Z,2.20
2022-07-29T15:35:26.258Z,1.83
2022-07-29T15:38:04.485Z,2.15
2022-07-29T15:40:44.349Z,2.17
2022-07-29T15:43:22.749Z,2.38
2022-07-29T15:46:19.731Z,2.05
2022-07-29T15:48:57.981Z,2.03
2022-07-29T15:51:36.372Z,1.63
2022-07-29T15:54:14.667Z,1.63
2022-07-29T15:56:52.816Z,1.67
2022-07-29T15:59:31.526Z,2.00
2022-07-29T16:02:09.628Z,1.48
2022-07-29T16:04:48.028Z,1.65
2022-07-29T16:07:31.458Z,1.45
2022-07-29T16:10:10.885Z,1.70
2022-07-29T16:12:48.977Z,1.45
2022-07-29T16:15:27.067Z,1.55
2022-07-29T16:18:05.295Z,1.75
2022-07-29T16:20:43.516Z,2.13
2022-07-29T16:23:21.654Z,1.50
2022-07-29T16:26:01.084Z,2.03
2022-07-29T16:28:39.619Z,1.50
2022-07-29T16:31:18.596Z,1.75
2022-07-29T16:33:56.968Z,1.75
2022-07-29T16:36:35.118Z,1.85
2022-07-29T16:39:13.307Z,2.00
2022-07-29T16:41:51.418Z,1.58
2022-07-29T16:44:29.735Z,1.58
2022-07-29T16:47:07.921Z,1.38
2022-07-29T16:49:47.479Z,1.60
2022-07-29T16:52:25.703Z,2.83
2022-07-29T16:55:05.353Z,1.55
2022-07-29T16:57:44.003Z,2.10
2022-07-29T17:00:23.786Z,2.90
2022-07-29T17:03:01.917Z,7.32
2022-07-29T17:05:50.328Z,3.28
2022-07-29T17:08:30.698Z,2.58
2022-07-29T17:11:09.305Z,2.10
2022-07-29T17:13:47.454Z,1.77
2022-07-29T17:16:28.029Z,1.55
2022-07-29T17:19:07.113Z,1.92
2022-07-29T17:21:49.162Z,2.08
2022-07-29T17:24:28.916Z,2.50
2022-07-29T17:27:07.652Z,2.63
2022-07-29T17:29:47.042Z,1.65
2022-07-29T17:32:25.423Z,1.50
2022-07-29T17:35:03.827Z,1.50
2022-07-29T17:37:41.909Z,1.35
2022-07-29T17:40:20.157Z,1.75
2022-07-29T17:42:58.255Z,1.58
2022-07-29T17:45:49.436Z,1.90
2022-07-29T17:48:28.880Z,2.28
2022-07-29T17:51:07.005Z,2.00
2022-07-29T17:53:45.216Z,2.17
2022-07-29T17:56:23.425Z,2.20
2022-07-29T17:59:01.711Z,1.90
2022-07-29T18:01:41.565Z,2.35
2022-07-29T18:04:21.228Z,1.90
2022-07-29T18:06:59.640Z,1.85
2022-07-29T18:09:40.001Z,1.75
2022-07-29T18:12:18.194Z,2.13
2022-07-29T18:14:57.423Z,1.98
2022-07-29T18:17:57.289Z,1.73
2022-07-29T18:20:31.809Z,2.00
2022-07-29T18:23:15.512Z,1.75
2022-07-29T18:25:53.870Z,1.48
2022-07-29T18:28:35.356Z,1.75
2022-07-29T18:31:16.167Z,1.85
2022-07-29T18:33:58.384Z,1.80
2022-07-29T18:36:38.334Z,2.33
2022-07-29T18:39:20.259Z,1.30
2022-07-29T18:42:01.045Z,1.80
2022-07-29T18:44:43.884Z,1.92
2022-07-29T18:47:32.029Z,1.70
2022-07-29T18:50:11.510Z,1.83
2022-07-29T18:52:49.793Z,2.20
2022-07-29T18:55:28.029Z,1.73
2022-07-29T18:58:06.377Z,1.77
2022-07-29T19:00:44.594Z,1.23
2022-07-29T19:03:22.837Z,1.63
2022-07-29T19:06:01.275Z,1.75
2022-07-29T19:08:39.565Z,1.60
2022-07-29T19:11:17.803Z,1.67
2022-07-29T19:13:56.049Z,1.58
2022-07-29T19:16:34.193Z,1.60
2022-07-29T19:19:12.725Z,1.65
2022-07-29T19:21:51.353Z,2.22
2022-07-29T19:24:29.758Z,1.60
2022-07-29T19:27:10.595Z,1.60
2022-07-29T19:29:48.856Z,1.45
2022-07-29T19:32:27.474Z,1.42
2022-07-29T19:35:26.638Z,1.65
2022-07-29T19:38:04.921Z,1.40
2022-07-29T19:40:43.681Z,1.80
2022-07-29T19:43:50.526Z,1.67
2022-07-29T19:46:22.151Z,1.90
2022-07-29T19:49:00.476Z,1.45
2022-07-29T19:51:41.821Z,1.52
2022-07-29T19:54:20.054Z,1.30
2022-07-29T19:56:58.455Z,1.50
2022-07-29T19:59:38.885Z,1.70
2022-07-29T20:02:17.273Z,1.48
2022-07-29T20:04:55.731Z,1.63
2022-07-29T20:07:34.141Z,1.30
2022-07-29T20:10:12.450Z,1.38
2022-07-29T20:12:52.488Z,1.70
2022-07-29T20:15:33.295Z,1.98
2022-07-29T20:18:11.551Z,2.20
2022-07-29T20:20:50.366Z,1.80
2022-07-29T20:23:28.639Z,1.67
2022-07-29T20:26:12.226Z,1.80
2022-07-29T20:28:50.368Z,2.05
2022-07-29T20:31:30.696Z,1.67
2022-07-29T20:34:09.587Z,1.27
2022-07-29T20:36:49.016Z,1.58
2022-07-29T20:39:27.192Z,1.83
2022-07-29T20:42:06.106Z,1.98
2022-07-29T20:44:44.394Z,1.70
2022-07-29T20:47:22.540Z,1.38
2022-07-29T20:50:00.913Z,1.60
2022-07-29T20:52:41.199Z,1.70
2022-07-29T20:55:20.295Z,1.52
2022-07-29T20:57:59.066Z,1.73
2022-07-29T21:00:37.877Z,1.58
2022-07-29T21:03:18.380Z,1.65
2022-07-29T21:05:56.584Z,1.80
2022-07-29T21:08:34.961Z,1.52
2022-07-29T21:11:13.168Z,1.40
2022-07-29T21:13:52.168Z,1.52
2022-07-29T21:16:33.549Z,1.85
2022-07-29T21:19:11.769Z,1.33
2022-07-29T21:21:50.192Z,1.50
2022-07-29T21:24:28.634Z,1.30
2022-07-29T21:27:29.773Z,1.65
2022-07-29T21:30:10.609Z,1.33
2022-07-29T21:32:46.179Z,1.35
2022-07-29T21:36:01.649Z,1.35
2022-07-29T21:38:23.359Z,1.02
2022-07-29T21:41:02.445Z,1.23
2022-07-29T21:43:42.446Z,1.10
2022-07-29T21:46:21.548Z,1.20
2022-07-29T21:49:02.962Z,1.42
2022-07-29T21:51:38.882Z,1.30
2022-07-29T21:54:17.067Z,1.50
2022-07-29T21:56:56.156Z,1.63
2022-07-29T21:59:36.026Z,1.23
2022-07-29T22:02:14.158Z,1.73
2022-07-29T22:04:52.380Z,1.40
2022-07-29T22:07:54.550Z,1.60
2022-07-29T22:10:31.177Z,1.10
2022-07-29T22:13:09.969Z,1.08
2022-07-29T22:15:48.144Z,1.50
2022-07-29T22:18:26.269Z,1.27
2022-07-29T22:21:04.561Z,1.58
2022-07-29T22:23:42.679Z,1.20
2022-07-29T22:26:21.095Z,1.38
2022-07-29T22:28:59.142Z,1.30
2022-07-29T22:31:37.406Z,1.20
2022-07-29T22:34:15.732Z,1.13
2022-07-29T22:36:54.044Z,1.30
2022-07-29T22:39:32.226Z,1.30
2022-07-29T22:42:10.425Z,1.13
2022-07-29T22:44:48.592Z,1.23
2022-07-29T22:47:46.100Z,1.23
2022-07-29T22:50:24.902Z,1.23
2022-07-29T22:53:03.053Z,1.20
2022-07-29T22:55:41.390Z,1.38
2022-07-29T22:58:19.442Z,1.40
2022-07-29T23:00:57.559Z,1.17
2022-07-29T23:03:35.857Z,1.23
2022-07-29T23:06:14.569Z,0.90
2022-07-29T23:08:52.668Z,1.10
2022-07-29T23:11:30.877Z,1.05
2022-07-29T23:14:09.619Z,0.90
2022-07-29T23:16:47.908Z,0.90
2022-07-29T23:19:26.121Z,1.30
2022-07-29T23:22:04.394Z,1.00
2022-07-29T23:24:42.594Z,1.13
2022-07-29T23:27:20.820Z,1.10
2022-07-29T23:29:58.918Z,0.80
2022-07-29T23:32:37.029Z,1.10
2022-07-29T23:35:15.218Z,1.40
2022-07-29T23:37:53.486Z,1.30
2022-07-29T23:40:31.759Z,1.33
2022-07-29T23:43:09.820Z,0.90
2022-07-29T23:45:48.523Z,1.10
2022-07-29T23:48:27.258Z,1.10
2022-07-29T23:51:05.453Z,1.08
2022-07-29T23:53:53.445Z,1.00
2022-07-29T23:56:32.336Z,1.10
2022-07-29T23:59:10.372Z,1.15
